createdAt,value
2016-06-01T00:00:05.178Z,996.52
2016-06-01T00:01:05.213Z,996.55
2016-06-01T00:02:05.263Z,996.56
2016-06-01T00:03:05.297Z,996.57
2016-06-01T00:04:05.346Z,996.58
2016-06-01T00:05:05.380Z,996.56
2016-06-01T00:06:05.429Z,996.57
2016-06-01T00:07:05.463Z,996.58
2016-06-01T00:08:05.513Z,996.58
2016-06-01T00:09:05.546Z,996.58
2016-06-01T00:10:05.618Z,996.62
2016-06-01T00:11:05.678Z,996.6
2016-06-01T00:12:05.753Z,996.63
2016-06-01T00:13:05.814Z,996.68
2016-06-01T00:14:05.889Z,996.61
2016-06-01T00:15:05.937Z,996.63
2016-06-01T00:16:05.994Z,996.6
2016-06-01T00:17:06.039Z,996.63
2016-06-01T00:18:06.098Z,996.62
2016-06-01T00:19:06.141Z,996.6
2016-06-01T00:20:06.180Z,996.61
2016-06-01T00:21:06.233Z,996.6
2016-06-01T00:22:06.286Z,996.56
2016-06-01T00:23:06.339Z,996.57
2016-06-01T00:24:06.799Z,996.51
2016-06-01T00:25:06.427Z,996.55
2016-06-01T00:26:06.446Z,996.54
2016-06-01T00:27:06.497Z,996.56
2016-06-01T00:28:06.548Z,996.57
2016-06-01T00:29:06.583Z,996.59
2016-06-01T00:30:06.618Z,996.6
2016-06-01T00:31:06.668Z,996.58
2016-06-01T00:32:06.702Z,996.59
2016-06-01T00:33:06.752Z,996.58
2016-06-01T00:34:06.786Z,996.57
2016-06-01T00:35:06.836Z,996.58
2016-06-01T00:36:06.886Z,996.54
2016-06-01T00:37:06.920Z,996.55
2016-06-01T00:38:06.953Z,996.54
2016-06-01T00:39:07.003Z,996.51
2016-06-01T00:40:07.037Z,996.49
2016-06-01T00:41:07.087Z,996.5
2016-06-01T00:42:07.120Z,996.53
2016-06-01T00:43:07.170Z,996.52
2016-06-01T00:44:07.204Z,996.52
2016-06-01T00:45:07.253Z,996.55
2016-06-01T00:46:07.288Z,996.56
2016-06-01T00:47:07.337Z,996.53
2016-06-01T00:48:07.371Z,996.53
2016-06-01T00:49:07.436Z,996.47
2016-06-01T00:50:07.455Z,996.51
2016-06-01T00:51:07.504Z,996.49
2016-06-01T00:52:07.538Z,996.49
2016-06-01T00:53:07.588Z,996.48
2016-06-01T00:54:07.621Z,996.48
2016-06-01T00:55:07.671Z,996.51
2016-06-01T00:56:07.737Z,996.49
2016-06-01T00:57:07.754Z,996.53
2016-06-01T00:58:07.788Z,996.52
2016-06-01T00:59:07.838Z,996.56
2016-06-01T01:00:07.872Z,996.55
2016-06-01T01:01:07.921Z,996.57
2016-06-01T01:02:07.956Z,996.6
2016-06-01T01:03:08.037Z,996.56
2016-06-01T01:04:08.039Z,996.52
2016-06-01T01:05:08.089Z,996.55
2016-06-01T01:06:08.122Z,996.53
2016-06-01T01:07:08.172Z,996.49
2016-06-01T01:08:08.206Z,996.51
2016-06-01T01:09:08.256Z,996.48
2016-06-01T01:10:08.305Z,996.48
2016-06-01T01:11:08.339Z,996.52
2016-06-01T01:12:08.373Z,996.49
2016-06-01T01:13:08.422Z,996.49
2016-06-01T01:14:08.456Z,996.5
2016-06-01T01:15:08.491Z,996.46
2016-06-01T01:16:08.541Z,996.46
2016-06-01T01:17:08.605Z,996.43
2016-06-01T01:18:08.624Z,996.45
2016-06-01T01:19:08.657Z,996.41
2016-06-01T01:20:08.707Z,996.37
2016-06-01T01:21:08.741Z,996.36
2016-06-01T01:22:08.791Z,996.34
2016-06-01T01:23:08.824Z,996.31
2016-06-01T01:24:08.905Z,996.31
2016-06-01T01:25:08.908Z,996.32
2016-06-01T01:26:08.957Z,996.35
2016-06-01T01:27:08.991Z,996.32
2016-06-01T01:28:09.041Z,996.27
2016-06-01T01:29:09.091Z,996.37
2016-06-01T01:30:09.140Z,996.39
2016-06-01T01:31:09.158Z,996.35
2016-06-01T01:32:09.208Z,996.38
2016-06-01T01:33:09.242Z,996.36
2016-06-01T01:34:09.292Z,996.43
2016-06-01T01:35:09.325Z,996.39
2016-06-01T01:36:09.375Z,996.36
2016-06-01T01:37:09.409Z,996.41
2016-06-01T01:38:09.459Z,996.34
2016-06-01T01:39:09.508Z,996.32
2016-06-01T01:40:09.542Z,996.37
2016-06-01T01:41:09.575Z,996.38
2016-06-01T01:42:09.625Z,996.35
2016-06-01T01:43:09.659Z,996.34
2016-06-01T01:44:09.709Z,996.32
2016-06-01T01:45:09.743Z,996.31
2016-06-01T01:46:09.777Z,996.29
2016-06-01T01:47:09.827Z,996.22
2016-06-01T01:48:09.877Z,996.19
2016-06-01T01:49:09.910Z,996.22
2016-06-01T01:50:09.944Z,996.21
2016-06-01T01:51:09.994Z,996.2
2016-06-01T01:52:10.043Z,996.24
2016-06-01T01:53:10.077Z,996.24
2016-06-01T01:54:10.110Z,996.29
2016-06-01T01:55:10.160Z,996.31
2016-06-01T01:56:10.210Z,996.31
2016-06-01T01:57:10.244Z,996.29
2016-06-01T01:58:10.278Z,996.29
2016-06-01T01:59:10.327Z,996.32
2016-06-01T02:00:10.393Z,996.3
2016-06-01T02:01:10.411Z,996.28
2016-06-01T02:02:10.445Z,996.28
2016-06-01T02:03:10.494Z,996.3
2016-06-01T02:04:10.529Z,996.28
2016-06-01T02:05:10.578Z,996.28
2016-06-01T02:06:10.612Z,996.22
2016-06-01T02:07:10.678Z,996.27
2016-06-01T02:08:10.695Z,996.22
2016-06-01T02:09:10.728Z,996.2
2016-06-01T02:10:10.795Z,996.19
2016-06-01T02:11:10.813Z,996.21
2016-06-01T02:12:10.862Z,996.16
2016-06-01T02:13:10.897Z,996.18
2016-06-01T02:14:10.961Z,996.13
2016-06-01T02:15:10.980Z,996.08
2016-06-01T02:16:11.030Z,996.06
2016-06-01T02:17:11.064Z,996.03
2016-06-01T02:18:11.128Z,996.01
2016-06-01T02:19:11.147Z,996
2016-06-01T02:20:11.196Z,996.02
2016-06-01T02:21:11.230Z,995.98
2016-06-01T02:22:11.280Z,995.95
2016-06-01T02:23:11.313Z,995.94
2016-06-01T02:24:11.364Z,995.99
2016-06-01T02:25:11.444Z,996.03
2016-06-01T02:26:11.446Z,995.96
2016-06-01T02:27:11.481Z,995.99
2016-06-01T02:28:11.515Z,996
2016-06-01T02:29:11.564Z,996
2016-06-01T02:30:11.599Z,995.99
2016-06-01T02:31:11.649Z,996
2016-06-01T02:32:11.681Z,995.96
2016-06-01T02:33:11.732Z,995.99
2016-06-01T02:34:11.765Z,995.96
2016-06-01T02:35:11.815Z,996
2016-06-01T02:36:11.849Z,996
2016-06-01T02:37:11.898Z,996.01
2016-06-01T02:38:11.931Z,996.01
2016-06-01T02:39:12.184Z,996.03
2016-06-01T02:40:12.016Z,996.07
2016-06-01T02:41:12.065Z,996.09
2016-06-01T02:42:12.100Z,996.08
2016-06-01T02:43:12.150Z,996.09
2016-06-01T02:44:12.183Z,996.04
2016-06-01T02:45:12.216Z,996.08
2016-06-01T02:46:12.266Z,996.08
2016-06-01T02:47:12.300Z,996.08
2016-06-01T02:48:12.350Z,996.06
2016-06-01T02:49:12.384Z,996.05
2016-06-01T02:50:12.433Z,996.08
2016-06-01T02:51:12.482Z,996.07
2016-06-01T02:52:12.516Z,996.09
2016-06-01T02:53:12.552Z,996.02
2016-06-01T02:54:12.585Z,996.06
2016-06-01T02:55:12.666Z,996.08
2016-06-01T02:56:12.669Z,996.06
2016-06-01T02:57:12.718Z,996.04
2016-06-01T02:58:12.751Z,996.09
2016-06-01T02:59:12.802Z,996.1
2016-06-01T03:00:12.835Z,996.07
2016-06-01T03:01:12.885Z,996.04
2016-06-01T03:02:12.919Z,996.06
2016-06-01T03:03:12.968Z,996.01
2016-06-01T03:04:13.001Z,996.01
2016-06-01T03:05:13.052Z,996.01
2016-06-01T03:06:13.117Z,996
2016-06-01T03:07:13.120Z,995.94
2016-06-01T03:08:13.170Z,995.96
2016-06-01T03:09:13.219Z,995.95
2016-06-01T03:10:13.253Z,995.9
2016-06-01T03:11:13.302Z,995.92
2016-06-01T03:12:13.337Z,995.86
2016-06-01T03:13:13.386Z,995.89
2016-06-01T03:14:13.420Z,995.89
2016-06-01T03:15:13.453Z,995.88
2016-06-01T03:16:13.503Z,995.86
2016-06-01T03:17:13.537Z,995.89
2016-06-01T03:18:13.587Z,995.86
2016-06-01T03:19:13.621Z,995.88
2016-06-01T03:20:13.670Z,995.88
2016-06-01T03:21:13.705Z,995.82
2016-06-01T03:22:13.754Z,995.85
2016-06-01T03:23:13.788Z,995.84
2016-06-01T03:24:13.838Z,995.86
2016-06-01T03:25:13.872Z,995.84
2016-06-01T03:26:13.921Z,995.88
2016-06-01T03:27:13.955Z,995.84
2016-06-01T03:28:13.989Z,995.94
2016-06-01T03:29:14.038Z,995.91
2016-06-01T03:30:14.088Z,995.91
2016-06-01T03:31:14.122Z,995.98
2016-06-01T03:32:14.172Z,995.97
2016-06-01T03:33:14.205Z,995.99
2016-06-01T03:34:14.239Z,996.03
2016-06-01T03:35:14.289Z,996.09
2016-06-01T03:36:14.323Z,996.1
2016-06-01T03:37:14.373Z,996.09
2016-06-01T03:38:14.407Z,996.14
2016-06-01T03:39:14.456Z,996.12
2016-06-01T03:40:14.489Z,996.15
2016-06-01T03:41:14.539Z,996.12
2016-06-01T03:42:14.573Z,996.15
2016-06-01T03:43:14.607Z,996.15
2016-06-01T03:44:14.657Z,996.15
2016-06-01T03:45:14.707Z,996.16
2016-06-01T03:46:14.739Z,996.16
2016-06-01T03:47:14.774Z,996.17
2016-06-01T03:48:14.824Z,996.13
2016-06-01T03:49:14.858Z,996.16
2016-06-01T03:50:14.907Z,996.13
2016-06-01T03:51:14.942Z,996.19
2016-06-01T03:52:14.974Z,996.14
2016-06-01T03:53:15.056Z,996.21
2016-06-01T03:54:15.434Z,996.21
2016-06-01T03:55:15.108Z,996.16
2016-06-01T03:56:15.142Z,996.13
2016-06-01T03:57:15.192Z,996.15
2016-06-01T03:58:15.226Z,996.14
2016-06-01T03:59:15.275Z,996.15
2016-06-01T04:00:15.340Z,996.13
2016-06-01T04:01:15.359Z,996.19
2016-06-01T04:02:15.393Z,996.2
2016-06-01T04:03:15.443Z,996.16
2016-06-01T04:04:15.477Z,996.18
2016-06-01T04:05:15.525Z,996.21
2016-06-01T04:06:15.560Z,996.25
2016-06-01T04:07:15.610Z,996.22
2016-06-01T04:08:15.643Z,996.2
2016-06-01T04:09:15.693Z,996.19
2016-06-01T04:10:15.743Z,996.24
2016-06-01T04:11:15.761Z,996.21
2016-06-01T04:12:15.810Z,996.17
2016-06-01T04:13:15.845Z,996.18
2016-06-01T04:14:15.894Z,996.2
2016-06-01T04:15:15.943Z,996.23
2016-06-01T04:16:15.978Z,996.22
2016-06-01T04:17:16.011Z,996.18
2016-06-01T04:18:16.076Z,996.21
2016-06-01T04:19:16.094Z,996.19
2016-06-01T04:20:16.145Z,996.2
2016-06-01T04:21:16.178Z,996.17
2016-06-01T04:22:16.228Z,996.21
2016-06-01T04:23:16.261Z,996.18
2016-06-01T04:24:16.311Z,996.15
2016-06-01T04:25:16.360Z,996.14
2016-06-01T04:26:16.380Z,996.14
2016-06-01T04:27:16.429Z,996.14
2016-06-01T04:28:16.463Z,996.17
2016-06-01T04:29:16.512Z,996.18
2016-06-01T04:30:16.547Z,996.2
2016-06-01T04:31:16.595Z,996.17
2016-06-01T04:32:16.630Z,996.22
2016-06-01T04:33:16.679Z,996.22
2016-06-01T04:34:16.713Z,996.28
2016-06-01T04:35:16.763Z,996.23
2016-06-01T04:36:16.812Z,996.24
2016-06-01T04:37:16.846Z,996.21
2016-06-01T04:38:16.880Z,996.23
2016-06-01T04:39:17.071Z,996.25
2016-06-01T04:40:16.964Z,996.28
2016-06-01T04:41:17.013Z,996.24
2016-06-01T04:42:17.047Z,996.19
2016-06-01T04:43:17.081Z,996.19
2016-06-01T04:44:17.131Z,996.18
2016-06-01T04:45:17.180Z,996.17
2016-06-01T04:46:17.230Z,996.18
2016-06-01T04:47:17.264Z,996.15
2016-06-01T04:48:17.297Z,996.14
2016-06-01T04:49:17.332Z,996.13
2016-06-01T04:50:17.381Z,996.11
2016-06-01T04:51:17.414Z,996.08
2016-06-01T04:52:17.465Z,996.09
2016-06-01T04:53:17.499Z,996.09
2016-06-01T04:54:17.594Z,996.09
2016-06-01T04:55:17.583Z,996.09
2016-06-01T04:56:17.632Z,996.1
2016-06-01T04:57:17.666Z,996.13
2016-06-01T04:58:17.715Z,996.14
2016-06-01T04:59:17.750Z,996.14
2016-06-01T05:00:17.799Z,996.13
2016-06-01T05:01:17.833Z,996.09
2016-06-01T05:02:17.866Z,996.12
2016-06-01T05:03:17.916Z,996.09
2016-06-01T05:04:17.966Z,996.05
2016-06-01T05:05:18.046Z,996.06
2016-06-01T05:06:18.034Z,996.04
2016-06-01T05:07:18.083Z,996.04
2016-06-01T05:08:18.133Z,995.98
2016-06-01T05:09:18.168Z,996.02
2016-06-01T05:10:18.201Z,995.97
2016-06-01T05:11:18.250Z,996
2016-06-01T05:12:18.315Z,995.99
2016-06-01T05:13:18.334Z,995.96
2016-06-01T05:14:18.367Z,995.97
2016-06-01T05:15:18.417Z,996.02
2016-06-01T05:16:18.451Z,996.02
2016-06-01T05:17:18.485Z,996.04
2016-06-01T05:18:18.534Z,996.07
2016-06-01T05:19:18.740Z,996.09
2016-06-01T05:20:18.618Z,996.1
2016-06-01T05:21:19.293Z,996.11
2016-06-01T05:22:18.702Z,996.08
2016-06-01T05:23:18.829Z,996.1
2016-06-01T05:24:19.176Z,996.11
2016-06-01T05:25:19.319Z,996.13
2016-06-01T05:26:18.884Z,996.1
2016-06-01T05:27:18.903Z,996.12
2016-06-01T05:28:18.952Z,996.15
2016-06-01T05:29:19.064Z,996.17
2016-06-01T05:30:19.067Z,996.18
2016-06-01T05:31:20.976Z,996.14
2016-06-01T05:32:21.104Z,996.14
2016-06-01T05:33:21.794Z,996.15
2016-06-01T05:34:21.624Z,996.11
2016-06-01T05:35:21.674Z,996.1
2016-06-01T05:36:21.708Z,996.13
2016-06-01T05:37:20.711Z,996.14
2016-06-01T05:38:20.276Z,996.16
2016-06-01T05:39:20.779Z,996.21
2016-06-01T05:40:21.578Z,996.19
2016-06-01T05:41:21.284Z,996.17
2016-06-01T05:42:22.162Z,996.19
2016-06-01T05:43:21.086Z,996.18
2016-06-01T05:44:21.995Z,996.2
2016-06-01T05:45:22.310Z,996.24
2016-06-01T05:46:20.782Z,996.23
2016-06-01T05:47:21.003Z,996.25
2016-06-01T05:48:21.928Z,996.23
2016-06-01T05:49:21.868Z,996.23
2016-06-01T05:50:21.762Z,996.2
2016-06-01T05:51:21.670Z,996.23
2016-06-01T05:52:20.814Z,996.22
2016-06-01T05:53:22.300Z,996.26
2016-06-01T05:54:21.850Z,996.22
2016-06-01T05:55:22.322Z,996.26
2016-06-01T05:56:22.950Z,996.2
2016-06-01T05:57:20.999Z,996.2
2016-06-01T05:58:23.142Z,996.2
2016-06-01T05:59:23.130Z,996.15
2016-06-01T06:00:22.414Z,996.21
2016-06-01T06:01:22.432Z,996.21
2016-06-01T06:02:24.044Z,996.2
2016-06-01T06:03:22.484Z,996.24
2016-06-01T06:04:21.940Z,996.24
2016-06-01T06:05:23.379Z,996.23
2016-06-01T06:06:22.538Z,996.22
2016-06-01T06:07:22.979Z,996.21
2016-06-01T06:08:23.357Z,996.22
2016-06-01T06:09:23.296Z,996.24
2016-06-01T06:10:23.534Z,996.25
2016-06-01T06:11:23.099Z,996.22
2016-06-01T06:12:23.399Z,996.24
2016-06-01T06:13:23.480Z,996.24
2016-06-01T06:14:21.576Z,996.24
2016-06-01T06:15:21.687Z,996.25
2016-06-01T06:16:24.175Z,996.23
2016-06-01T06:17:23.928Z,996.25
2016-06-01T06:18:23.289Z,996.23
2016-06-01T06:19:24.261Z,996.27
2016-06-01T06:20:22.733Z,996.23
2016-06-01T06:21:23.563Z,996.2
2016-06-01T06:22:23.363Z,996.19
2016-06-01T06:23:23.867Z,996.19
2016-06-01T06:24:22.806Z,996.21
2016-06-01T06:25:24.465Z,996.19
2016-06-01T06:26:21.952Z,996.22
2016-06-01T06:27:23.283Z,996.22
2016-06-01T06:28:21.457Z,996.22
2016-06-01T06:29:21.508Z,996.22
2016-06-01T06:30:21.541Z,996.25
2016-06-01T06:31:21.590Z,996.23
2016-06-01T06:32:21.624Z,996.25
2016-06-01T06:33:21.674Z,996.23
2016-06-01T06:34:21.927Z,996.23
2016-06-01T06:35:21.883Z,996.23
2016-06-01T06:36:21.822Z,996.23
2016-06-01T06:37:21.841Z,996.24
2016-06-01T06:38:21.874Z,996.26
2016-06-01T06:39:22.862Z,996.23
2016-06-01T06:40:21.958Z,996.25
2016-06-01T06:41:22.008Z,996.25
2016-06-01T06:42:22.043Z,996.23
2016-06-01T06:43:22.107Z,996.28
2016-06-01T06:44:22.126Z,996.23
2016-06-01T06:45:22.175Z,996.27
2016-06-01T06:46:22.224Z,996.29
2016-06-01T06:47:22.259Z,996.31
2016-06-01T06:48:22.370Z,996.29
2016-06-01T06:49:22.357Z,996.3
2016-06-01T06:50:22.392Z,996.32
2016-06-01T06:51:22.442Z,996.33
2016-06-01T06:52:22.475Z,996.38
2016-06-01T06:53:22.508Z,996.38
2016-06-01T06:54:22.636Z,996.38
2016-06-01T06:55:22.608Z,996.39
2016-06-01T06:56:22.642Z,996.39
2016-06-01T06:57:22.676Z,996.37
2016-06-01T06:58:22.726Z,996.41
2016-06-01T06:59:22.759Z,996.36
2016-06-01T07:00:22.808Z,996.37
2016-06-01T07:01:22.843Z,996.33
2016-06-01T07:02:22.892Z,996.35
2016-06-01T07:03:22.942Z,996.35
2016-06-01T07:04:22.977Z,996.35
2016-06-01T07:05:23.026Z,996.37
2016-06-01T07:06:23.060Z,996.33
2016-06-01T07:07:23.109Z,996.33
2016-06-01T07:08:23.144Z,996.37
2016-06-01T07:09:23.255Z,996.36
2016-06-01T07:10:23.274Z,996.35
2016-06-01T07:11:23.276Z,996.33
2016-06-01T07:12:23.310Z,996.33
2016-06-01T07:13:23.360Z,996.33
2016-06-01T07:14:23.393Z,996.3
2016-06-01T07:15:23.443Z,996.36
2016-06-01T07:16:23.492Z,996.29
2016-06-01T07:17:23.527Z,996.33
2016-06-01T07:18:23.576Z,996.33
2016-06-01T07:19:23.610Z,996.3
2016-06-01T07:20:23.645Z,996.27
2016-06-01T07:21:23.693Z,996.25
2016-06-01T07:22:23.743Z,996.28
2016-06-01T07:23:23.777Z,996.3
2016-06-01T07:24:23.826Z,996.3
2016-06-01T07:25:23.923Z,996.36
2016-06-01T07:26:24.286Z,996.34
2016-06-01T07:27:24.069Z,996.33
2016-06-01T07:28:23.994Z,996.36
2016-06-01T07:29:24.044Z,996.33
2016-06-01T07:30:24.077Z,996.35
2016-06-01T07:31:24.111Z,996.36
2016-06-01T07:32:24.552Z,996.37
2016-06-01T07:33:24.211Z,996.36
2016-06-01T07:34:24.244Z,996.36
2016-06-01T07:35:24.310Z,996.35
2016-06-01T07:36:24.328Z,996.35
2016-06-01T07:37:24.377Z,996.4
2016-06-01T07:38:24.410Z,996.39
2016-06-01T07:39:24.460Z,996.42
2016-06-01T07:40:24.510Z,996.41
2016-06-01T07:41:24.544Z,996.41
2016-06-01T07:42:24.594Z,996.48
2016-06-01T07:43:24.628Z,996.41
2016-06-01T07:44:24.677Z,996.42
2016-06-01T07:45:24.711Z,996.4
2016-06-01T07:46:24.760Z,996.4
2016-06-01T07:47:24.810Z,996.43
2016-06-01T07:48:24.845Z,996.38
2016-06-01T07:49:24.879Z,996.4
2016-06-01T07:50:24.928Z,996.4
2016-06-01T07:51:24.978Z,996.36
2016-06-01T07:52:25.011Z,996.39
2016-06-01T07:53:26.295Z,996.38
2016-06-01T07:54:25.657Z,996.34
2016-06-01T07:55:25.426Z,996.32
2016-06-01T07:56:25.178Z,996.31
2016-06-01T07:57:25.228Z,996.31
2016-06-01T07:58:25.278Z,996.32
2016-06-01T07:59:25.311Z,996.35
2016-06-01T08:00:25.362Z,996.33
2016-06-01T08:01:25.519Z,996.32
2016-06-01T08:02:25.663Z,996.33
2016-06-01T08:03:25.478Z,996.34
2016-06-01T08:04:25.528Z,996.36
2016-06-01T08:05:25.577Z,996.35
2016-06-01T08:06:25.736Z,996.35
2016-06-01T08:07:25.692Z,996.32
2016-06-01T08:08:25.914Z,996.37
2016-06-01T08:09:25.791Z,996.38
2016-06-01T08:10:26.044Z,996.39
2016-06-01T08:11:25.874Z,996.41
2016-06-01T08:12:26.080Z,996.45
2016-06-01T08:13:25.990Z,996.41
2016-06-01T08:14:25.961Z,996.39
2016-06-01T08:15:26.011Z,996.42
2016-06-01T08:16:26.060Z,996.44
2016-06-01T08:17:26.094Z,996.47
2016-06-01T08:18:26.143Z,996.49
2016-06-01T08:19:26.193Z,996.44
2016-06-01T08:20:26.227Z,996.46
2016-06-01T08:21:26.277Z,996.43
2016-06-01T08:22:26.312Z,996.44
2016-06-01T08:23:26.439Z,996.43
2016-06-01T08:24:26.534Z,996.46
2016-06-01T08:25:26.445Z,996.45
2016-06-01T08:26:26.697Z,996.42
2016-06-01T08:27:26.543Z,996.45
2016-06-01T08:28:26.592Z,996.45
2016-06-01T08:29:26.626Z,996.46
2016-06-01T08:30:26.676Z,996.47
2016-06-01T08:31:26.726Z,996.44
2016-06-01T08:32:27.619Z,996.46
2016-06-01T08:33:26.871Z,996.45
2016-06-01T08:34:27.234Z,996.41
2016-06-01T08:35:27.346Z,996.45
2016-06-01T08:36:26.989Z,996.45
2016-06-01T08:37:27.789Z,996.48
2016-06-01T08:38:27.025Z,996.47
2016-06-01T08:39:27.060Z,996.47
2016-06-01T08:40:27.110Z,996.42
2016-06-01T08:41:27.143Z,996.42
2016-06-01T08:42:27.193Z,996.45
2016-06-01T08:43:27.243Z,996.44
2016-06-01T08:44:27.292Z,996.46
2016-06-01T08:45:27.326Z,996.46
2016-06-01T08:46:27.376Z,996.47
2016-06-01T08:47:27.410Z,996.49
2016-06-01T08:48:27.491Z,996.52
2016-06-01T08:49:27.493Z,996.56
2016-06-01T08:50:27.542Z,996.56
2016-06-01T08:51:27.592Z,996.57
2016-06-01T08:52:27.626Z,996.57
2016-06-01T08:53:27.676Z,996.6
2016-06-01T08:54:27.726Z,996.61
2016-06-01T08:55:27.775Z,996.61
2016-06-01T08:56:27.809Z,996.61
2016-06-01T08:57:27.859Z,996.65
2016-06-01T08:58:27.908Z,996.61
2016-06-01T08:59:27.972Z,996.62
2016-06-01T09:00:27.992Z,996.59
2016-06-01T09:01:28.072Z,996.64
2016-06-01T09:02:28.075Z,996.68
2016-06-01T09:03:28.125Z,996.72
2016-06-01T09:04:28.174Z,996.72
2016-06-01T09:05:28.380Z,996.69
2016-06-01T09:06:28.305Z,996.71
2016-06-01T09:07:28.775Z,996.72
2016-06-01T09:08:28.403Z,996.72
2016-06-01T09:09:28.858Z,996.71
2016-06-01T09:10:28.580Z,996.69
2016-06-01T09:11:28.505Z,996.66
2016-06-01T09:12:28.555Z,996.64
2016-06-01T09:13:28.589Z,996.65
2016-06-01T09:14:28.638Z,996.62
2016-06-01T09:15:28.689Z,996.63
2016-06-01T09:16:28.763Z,996.65
2016-06-01T09:17:28.821Z,996.66
2016-06-01T09:18:28.894Z,996.66
2016-06-01T09:19:28.969Z,996.6
2016-06-01T09:20:29.041Z,996.62
2016-06-01T09:21:30.256Z,996.64
2016-06-01T09:22:29.156Z,996.6
2016-06-01T09:23:29.340Z,996.68
2016-06-01T09:24:29.336Z,996.67
2016-06-01T09:25:29.315Z,996.64
2016-06-01T09:26:29.368Z,996.61
2016-06-01T09:27:29.484Z,996.6
2016-06-01T09:28:29.473Z,996.64
2016-06-01T09:29:29.542Z,996.67
2016-06-01T09:30:29.579Z,996.65
2016-06-01T09:31:29.660Z,996.68
2016-06-01T09:32:29.665Z,996.7
2016-06-01T09:33:29.731Z,996.71
2016-06-01T09:34:29.766Z,996.7
2016-06-01T09:35:29.801Z,996.75
2016-06-01T09:36:29.851Z,996.72
2016-06-01T09:37:29.901Z,996.72
2016-06-01T09:38:29.951Z,996.71
2016-06-01T09:39:30.000Z,996.75
2016-06-01T09:40:30.035Z,996.71
2016-06-01T09:41:30.086Z,996.71
2016-06-01T09:42:30.135Z,996.69
2016-06-01T09:43:30.184Z,996.64
2016-06-01T09:44:30.234Z,996.7
2016-06-01T09:45:30.550Z,996.66
2016-06-01T09:46:30.318Z,996.64
2016-06-01T09:47:30.821Z,996.64
2016-06-01T09:48:30.793Z,996.61
2016-06-01T09:49:30.483Z,996.62
2016-06-01T09:50:30.626Z,996.62
2016-06-01T09:51:30.551Z,996.57
2016-06-01T09:52:30.648Z,996.62
2016-06-01T09:53:30.650Z,996.58
2016-06-01T09:54:30.699Z,996.58
2016-06-01T09:55:30.750Z,996.6
2016-06-01T09:56:30.783Z,996.6
2016-06-01T09:57:31.020Z,996.6
2016-06-01T09:58:30.882Z,996.62
2016-06-01T09:59:30.994Z,996.6
2016-06-01T10:00:31.044Z,996.6
2016-06-01T10:01:31.156Z,996.6
2016-06-01T10:02:31.065Z,996.6
2016-06-01T10:03:31.146Z,996.6
2016-06-01T10:04:31.163Z,996.58
2016-06-01T10:05:31.402Z,996.59
2016-06-01T10:06:31.357Z,996.62
2016-06-01T10:07:31.297Z,996.6
2016-06-01T10:08:31.424Z,996.62
2016-06-01T10:09:31.396Z,996.64
2016-06-01T10:10:31.446Z,996.62
2016-06-01T10:11:31.480Z,996.6
2016-06-01T10:12:31.546Z,996.57
2016-06-01T10:13:31.579Z,996.6
2016-06-01T10:14:31.628Z,996.6
2016-06-01T10:15:31.663Z,996.62
2016-06-01T10:16:31.712Z,996.6
2016-06-01T10:17:31.761Z,996.61
2016-06-01T10:18:31.811Z,996.6
2016-06-01T10:19:31.845Z,996.63
2016-06-01T10:20:31.895Z,996.57
2016-06-01T10:21:31.944Z,996.62
2016-06-01T10:22:32.009Z,996.61
2016-06-01T10:23:32.043Z,996.57
2016-06-01T10:24:32.078Z,996.53
2016-06-01T10:25:32.127Z,996.56
2016-06-01T10:26:32.176Z,996.56
2016-06-01T10:27:32.210Z,996.59
2016-06-01T10:28:32.306Z,996.58
2016-06-01T10:29:32.309Z,996.55
2016-06-01T10:30:32.359Z,996.58
2016-06-01T10:31:32.392Z,996.56
2016-06-01T10:32:32.442Z,996.58
2016-06-01T10:33:32.492Z,996.56
2016-06-01T10:34:32.542Z,996.58
2016-06-01T10:35:32.575Z,996.6
2016-06-01T10:36:32.625Z,996.62
2016-06-01T10:37:32.815Z,996.65
2016-06-01T10:38:32.725Z,996.65
2016-06-01T10:39:32.774Z,996.67
2016-06-01T10:40:32.823Z,996.64
2016-06-01T10:41:32.858Z,996.63
2016-06-01T10:42:32.907Z,996.61
2016-06-01T10:43:32.957Z,996.65
2016-06-01T10:44:32.990Z,996.65
2016-06-01T10:45:33.040Z,996.61
2016-06-01T10:46:33.104Z,996.61
2016-06-01T10:47:33.140Z,996.63
2016-06-01T10:48:33.188Z,996.61
2016-06-01T10:49:33.254Z,996.67
2016-06-01T10:50:33.273Z,996.62
2016-06-01T10:51:33.322Z,996.6
2016-06-01T10:52:33.371Z,996.59
2016-06-01T10:53:33.405Z,996.58
2016-06-01T10:54:33.470Z,996.62
2016-06-01T10:55:33.504Z,996.62
2016-06-01T10:56:33.554Z,996.62
2016-06-01T10:57:33.619Z,996.64
2016-06-01T10:58:33.887Z,996.68
2016-06-01T10:59:33.687Z,996.65
2016-06-01T11:00:33.721Z,996.64
2016-06-01T11:01:33.787Z,996.66
2016-06-01T11:02:33.897Z,996.64
2016-06-01T11:03:33.869Z,996.63
2016-06-01T11:04:33.935Z,996.63
2016-06-01T11:05:34.109Z,996.68
2016-06-01T11:06:34.346Z,996.66
2016-06-01T11:07:34.052Z,996.69
2016-06-01T11:08:34.133Z,996.71
2016-06-01T11:09:34.136Z,996.69
2016-06-01T11:10:34.263Z,996.7
2016-06-01T11:11:34.235Z,996.7
2016-06-01T11:12:34.284Z,996.7
2016-06-01T11:13:34.568Z,996.66
2016-06-01T11:14:34.399Z,996.62
2016-06-01T11:15:34.418Z,996.66
2016-06-01T11:16:35.045Z,996.66
2016-06-01T11:17:34.516Z,996.63
2016-06-01T11:18:34.676Z,996.65
2016-06-01T11:19:34.647Z,996.68
2016-06-01T11:20:34.634Z,996.66
2016-06-01T11:21:34.684Z,996.6
2016-06-01T11:22:34.733Z,996.67
2016-06-01T11:23:34.767Z,996.63
2016-06-01T11:24:35.129Z,996.66
2016-06-01T11:25:34.867Z,996.64
2016-06-01T11:26:34.900Z,996.64
2016-06-01T11:27:34.950Z,996.65
2016-06-01T11:28:35.000Z,996.64
2016-06-01T11:29:35.049Z,996.68
2016-06-01T11:30:35.083Z,996.64
2016-06-01T11:31:35.194Z,996.7
2016-06-01T11:32:35.181Z,996.74
2016-06-01T11:33:35.216Z,996.73
2016-06-01T11:34:35.266Z,996.76
2016-06-01T11:35:35.315Z,996.75
2016-06-01T11:36:35.365Z,996.76
2016-06-01T11:37:35.414Z,996.87
2016-06-01T11:38:35.448Z,996.9
2016-06-01T11:39:35.498Z,996.89
2016-06-01T11:40:35.547Z,996.79
2016-06-01T11:41:35.627Z,996.79
2016-06-01T11:42:35.630Z,996.81
2016-06-01T11:43:35.680Z,996.77
2016-06-01T11:44:35.730Z,996.71
2016-06-01T11:45:35.780Z,996.71
2016-06-01T11:46:35.876Z,996.66
2016-06-01T11:47:35.879Z,996.7
2016-06-01T11:48:35.929Z,996.64
2016-06-01T11:49:35.977Z,996.69
2016-06-01T11:50:36.059Z,996.65
2016-06-01T11:51:36.077Z,996.68
2016-06-01T11:52:36.110Z,996.66
2016-06-01T11:53:36.176Z,996.66
2016-06-01T11:54:36.225Z,996.69
2016-06-01T11:55:36.259Z,996.73
2016-06-01T11:56:36.309Z,996.73
2016-06-01T11:57:36.359Z,996.68
2016-06-01T11:58:36.408Z,996.67
2016-06-01T11:59:36.473Z,996.68
2016-06-01T12:00:36.523Z,996.65
2016-06-01T12:01:36.557Z,996.68
2016-06-01T12:02:36.591Z,996.64
2016-06-01T12:03:36.640Z,996.67
2016-06-01T12:04:36.815Z,996.67
2016-06-01T12:05:37.037Z,996.7
2016-06-01T12:06:36.788Z,996.68
2016-06-01T12:07:36.855Z,996.66
2016-06-01T12:08:36.873Z,996.68
2016-06-01T12:09:36.922Z,996.61
2016-06-01T12:10:37.112Z,996.58
2016-06-01T12:11:37.053Z,996.6
2016-06-01T12:12:37.071Z,996.6
2016-06-01T12:13:37.261Z,996.62
2016-06-01T12:14:37.170Z,996.63
2016-06-01T12:15:37.235Z,996.63
2016-06-01T12:16:37.254Z,996.64
2016-06-01T12:17:37.318Z,996.68
2016-06-01T12:18:37.352Z,996.65
2016-06-01T12:19:37.402Z,996.65
2016-06-01T12:20:37.435Z,996.64
2016-06-01T12:21:37.501Z,996.69
2016-06-01T12:22:37.551Z,996.65
2016-06-01T12:23:37.585Z,996.56
2016-06-01T12:24:37.665Z,996.52
2016-06-01T12:25:37.715Z,996.47
2016-06-01T12:26:37.734Z,996.49
2016-06-01T12:27:41.251Z,996.49
2016-06-01T12:28:38.193Z,996.51
2016-06-01T12:29:38.195Z,996.5
2016-06-01T12:30:38.212Z,996.62
2016-06-01T12:31:37.966Z,996.61